sensor_id;sensor_type;location;lat;lon;timestamp;P1;durP1;ratioP1;P2;durP2;ratioP2
46597;SDS011;32318;48.858;8.252;2023-03-23T00:03:31;2.42;;;1.05;;
46597;SDS011;32318;48.858;8.252;2023-03-23T00:11:31;1.45;;;0.98;;
46597;SDS011;32318;48.858;8.252;2023-03-23T00:19:32;1.77;;;0.97;;
46597;SDS011;32318;48.858;8.252;2023-03-23T00:27:32;1.58;;;1.00;;
46597;SDS011;32318;48.858;8.252;2023-03-23T00:35:32;5.15;;;1.23;;
46597;SDS011;32318;48.858;8.252;2023-03-23T00:51:39;2.90;;;1.13;;
46597;SDS011;32318;48.858;8.252;2023-03-23T01:25:35;2.83;;;1.48;;
46597;SDS011;32318;48.858;8.252;2023-03-23T01:41:48;2.13;;;1.13;;
46597;SDS011;32318;48.858;8.252;2023-03-23T01:50:10;2.80;;;1.27;;
46597;SDS011;32318;48.858;8.252;2023-03-23T01:58:33;2.92;;;1.50;;
46597;SDS011;32318;48.858;8.252;2023-03-23T02:06:39;2.40;;;1.38;;
46597;SDS011;32318;48.858;8.252;2023-03-23T02:14:39;3.92;;;1.40;;
46597;SDS011;32318;48.858;8.252;2023-03-23T02:23:20;3.03;;;1.27;;
46597;SDS011;32318;48.858;8.252;2023-03-23T02:40:12;3.22;;;1.30;;
46597;SDS011;32318;48.858;8.252;2023-03-23T02:48:17;1.63;;;1.10;;
46597;SDS011;32318;48.858;8.252;2023-03-23T02:56:21;5.85;;;1.27;;
46597;SDS011;32318;48.858;8.252;2023-03-23T03:04:25;4.00;;;1.63;;
46597;SDS011;32318;48.858;8.252;2023-03-23T03:21:16;2.33;;;1.27;;
46597;SDS011;32318;48.858;8.252;2023-03-23T03:29:26;2.80;;;1.30;;
46597;SDS011;32318;48.858;8.252;2023-03-23T03:37:36;3.20;;;1.20;;
46597;SDS011;32318;48.858;8.252;2023-03-23T03:45:38;2.80;;;1.23;;
46597;SDS011;32318;48.858;8.252;2023-03-23T03:53:38;7.17;;;1.37;;
46597;SDS011;32318;48.858;8.252;2023-03-23T04:01:39;2.58;;;1.50;;
46597;SDS011;32318;48.858;8.252;2023-03-23T04:09:40;4.78;;;1.40;;
46597;SDS011;32318;48.858;8.252;2023-03-23T04:17:40;2.58;;;1.48;;
46597;SDS011;32318;48.858;8.252;2023-03-23T04:25:42;2.42;;;1.40;;
46597;SDS011;32318;48.858;8.252;2023-03-23T04:33:46;5.25;;;1.65;;
46597;SDS011;32318;48.858;8.252;2023-03-23T04:41:47;4.00;;;1.50;;
46597;SDS011;32318;48.858;8.252;2023-03-23T04:49:47;3.13;;;1.33;;
46597;SDS011;32318;48.858;8.252;2023-03-23T04:57:51;3.08;;;1.50;;
46597;SDS011;32318;48.858;8.252;2023-03-23T05:05:52;3.78;;;1.77;;
46597;SDS011;32318;48.858;8.252;2023-03-23T05:13:53;3.70;;;1.83;;
46597;SDS011;32318;48.858;8.252;2023-03-23T05:21:54;6.55;;;1.70;;
46597;SDS011;32318;48.858;8.252;2023-03-23T05:30:03;5.90;;;2.05;;
46597;SDS011;32318;48.858;8.252;2023-03-23T05:38:04;3.35;;;1.50;;
46597;SDS011;32318;48.858;8.252;2023-03-23T05:46:05;7.77;;;1.60;;
46597;SDS011;32318;48.858;8.252;2023-03-23T05:54:06;6.43;;;1.92;;
46597;SDS011;32318;48.858;8.252;2023-03-23T06:02:07;5.53;;;2.30;;
46597;SDS011;32318;48.858;8.252;2023-03-23T06:10:07;3.95;;;2.00;;
46597;SDS011;32318;48.858;8.252;2023-03-23T06:18:09;5.57;;;2.08;;
46597;SDS011;32318;48.858;8.252;2023-03-23T06:26:09;9.68;;;2.10;;
46597;SDS011;32318;48.858;8.252;2023-03-23T06:34:11;3.55;;;2.00;;
46597;SDS011;32318;48.858;8.252;2023-03-23T06:42:12;6.82;;;2.33;;
46597;SDS011;32318;48.858;8.252;2023-03-23T06:50:12;5.97;;;2.70;;
46597;SDS011;32318;48.858;8.252;2023-03-23T06:58:21;5.43;;;2.05;;
46597;SDS011;32318;48.858;8.252;2023-03-23T07:06:23;8.95;;;3.05;;
46597;SDS011;32318;48.858;8.252;2023-03-23T07:14:25;10.70;;;2.22;;
46597;SDS011;32318;48.858;8.252;2023-03-23T07:22:25;4.78;;;2.22;;
46597;SDS011;32318;48.858;8.252;2023-03-23T07:30:25;8.25;;;2.53;;
46597;SDS011;32318;48.858;8.252;2023-03-23T07:38:26;7.32;;;2.53;;
46597;SDS011;32318;48.858;8.252;2023-03-23T07:46:27;6.47;;;3.10;;
46597;SDS011;32318;48.858;8.252;2023-03-23T07:54:27;10.10;;;2.72;;
46597;SDS011;32318;48.858;8.252;2023-03-23T08:02:28;17.00;;;3.17;;
46597;SDS011;32318;48.858;8.252;2023-03-23T08:10:30;11.30;;;3.20;;
46597;SDS011;32318;48.858;8.252;2023-03-23T08:18:31;5.80;;;2.67;;
46597;SDS011;32318;48.858;8.252;2023-03-23T08:26:34;5.75;;;2.80;;
46597;SDS011;32318;48.858;8.252;2023-03-23T08:34:34;9.85;;;2.30;;
46597;SDS011;32318;48.858;8.252;2023-03-23T08:42:36;4.25;;;1.88;;
46597;SDS011;32318;48.858;8.252;2023-03-23T08:50:37;6.13;;;1.90;;
46597;SDS011;32318;48.858;8.252;2023-03-23T08:58:41;7.68;;;1.70;;
46597;SDS011;32318;48.858;8.252;2023-03-23T09:06:44;3.72;;;1.58;;
46597;SDS011;32318;48.858;8.252;2023-03-23T09:14:45;3.10;;;1.50;;
46597;SDS011;32318;48.858;8.252;2023-03-23T09:22:55;4.18;;;1.15;;
46597;SDS011;32318;48.858;8.252;2023-03-23T09:30:56;4.25;;;1.10;;
46597;SDS011;32318;48.858;8.252;2023-03-23T09:38:57;4.22;;;1.10;;
46597;SDS011;32318;48.858;8.252;2023-03-23T09:47:02;6.78;;;1.40;;
46597;SDS011;32318;48.858;8.252;2023-03-23T09:55:14;3.88;;;1.00;;
46597;SDS011;32318;48.858;8.252;2023-03-23T10:03:17;1.55;;;0.90;;
46597;SDS011;32318;48.858;8.252;2023-03-23T10:28:05;6.95;;;1.30;;
46597;SDS011;32318;48.858;8.252;2023-03-23T10:36:24;3.47;;;1.52;;
46597;SDS011;32318;48.858;8.252;2023-03-23T10:44:29;4.60;;;1.23;;
46597;SDS011;32318;48.858;8.252;2023-03-23T10:52:32;6.40;;;1.88;;
46597;SDS011;32318;48.858;8.252;2023-03-23T11:00:45;2.47;;;1.40;;
46597;SDS011;32318;48.858;8.252;2023-03-23T11:08:48;2.92;;;1.95;;
46597;SDS011;32318;48.858;8.252;2023-03-23T11:16:57;5.45;;;1.77;;
46597;SDS011;32318;48.858;8.252;2023-03-23T11:25:02;5.63;;;1.97;;
46597;SDS011;32318;48.858;8.252;2023-03-23T11:33:05;4.90;;;1.40;;
46597;SDS011;32318;48.858;8.252;2023-03-23T11:41:09;5.68;;;1.70;;
46597;SDS011;32318;48.858;8.252;2023-03-23T11:57:26;2.85;;;1.80;;
46597;SDS011;32318;48.858;8.252;2023-03-23T12:05:40;3.17;;;1.45;;
46597;SDS011;32318;48.858;8.252;2023-03-23T12:22:29;5.20;;;2.50;;
46597;SDS011;32318;48.858;8.252;2023-03-23T12:47:59;5.75;;;1.90;;
46597;SDS011;32318;48.858;8.252;2023-03-23T12:56:15;5.20;;;2.42;;
46597;SDS011;32318;48.858;8.252;2023-03-23T13:04:25;3.38;;;2.15;;
46597;SDS011;32318;48.858;8.252;2023-03-23T13:12:30;3.97;;;2.05;;
46597;SDS011;32318;48.858;8.252;2023-03-23T13:29:00;6.55;;;2.30;;
46597;SDS011;32318;48.858;8.252;2023-03-23T13:37:06;4.53;;;2.35;;
46597;SDS011;32318;48.858;8.252;2023-03-23T13:53:31;5.78;;;2.47;;
46597;SDS011;32318;48.858;8.252;2023-03-23T14:01:46;8.48;;;2.40;;
46597;SDS011;32318;48.858;8.252;2023-03-23T14:09:46;5.30;;;2.17;;
46597;SDS011;32318;48.858;8.252;2023-03-23T14:17:48;5.55;;;2.35;;
46597;SDS011;32318;48.858;8.252;2023-03-23T14:26:00;6.60;;;2.63;;
46597;SDS011;32318;48.858;8.252;2023-03-23T14:34:14;5.20;;;2.30;;
46597;SDS011;32318;48.858;8.252;2023-03-23T14:42:19;8.07;;;2.50;;
46597;SDS011;32318;48.858;8.252;2023-03-23T14:58:30;10.02;;;2.97;;
46597;SDS011;32318;48.858;8.252;2023-03-23T15:06:31;6.88;;;2.38;;
46597;SDS011;32318;48.858;8.252;2023-03-23T15:14:43;4.38;;;2.45;;
46597;SDS011;32318;48.858;8.252;2023-03-23T15:22:46;5.07;;;2.25;;
46597;SDS011;32318;48.858;8.252;2023-03-23T15:38:49;6.20;;;2.38;;
46597;SDS011;32318;48.858;8.252;2023-03-23T15:46:50;5.80;;;2.60;;
46597;SDS011;32318;48.858;8.252;2023-03-23T15:54:53;7.57;;;2.35;;
46597;SDS011;32318;48.858;8.252;2023-03-23T16:02:58;4.47;;;2.42;;
46597;SDS011;32318;48.858;8.252;2023-03-23T16:11:00;5.43;;;1.95;;
46597;SDS011;32318;48.858;8.252;2023-03-23T16:19:00;9.07;;;2.30;;
46597;SDS011;32318;48.858;8.252;2023-03-23T16:27:01;6.68;;;2.58;;
46597;SDS011;32318;48.858;8.252;2023-03-23T16:35:01;7.10;;;2.45;;
46597;SDS011;32318;48.858;8.252;2023-03-23T16:43:02;7.18;;;3.40;;
46597;SDS011;32318;48.858;8.252;2023-03-23T16:51:02;12.13;;;2.80;;
46597;SDS011;32318;48.858;8.252;2023-03-23T16:59:02;7.80;;;2.80;;
46597;SDS011;32318;48.858;8.252;2023-03-23T17:07:03;12.45;;;4.47;;
46597;SDS011;32318;48.858;8.252;2023-03-23T17:15:03;10.65;;;2.58;;
46597;SDS011;32318;48.858;8.252;2023-03-23T17:23:05;4.18;;;2.05;;
46597;SDS011;32318;48.858;8.252;2023-03-23T17:31:05;5.68;;;1.80;;
46597;SDS011;32318;48.858;8.252;2023-03-23T17:39:06;4.93;;;1.88;;
46597;SDS011;32318;48.858;8.252;2023-03-23T17:47:06;6.13;;;2.25;;
46597;SDS011;32318;48.858;8.252;2023-03-23T17:55:06;4.78;;;2.10;;
46597;SDS011;32318;48.858;8.252;2023-03-23T18:03:07;6.65;;;1.73;;
46597;SDS011;32318;48.858;8.252;2023-03-23T18:28:49;3.90;;;2.28;;
46597;SDS011;32318;48.858;8.252;2023-03-23T18:53:48;3.17;;;1.70;;
46597;SDS011;32318;48.858;8.252;2023-03-23T19:01:49;5.63;;;2.03;;
46597;SDS011;32318;48.858;8.252;2023-03-23T19:09:50;4.93;;;2.00;;
46597;SDS011;32318;48.858;8.252;2023-03-23T19:17:51;5.88;;;2.00;;
46597;SDS011;32318;48.858;8.252;2023-03-23T19:25:54;5.90;;;1.90;;
46597;SDS011;32318;48.858;8.252;2023-03-23T19:33:55;6.50;;;1.65;;
46597;SDS011;32318;48.858;8.252;2023-03-23T19:41:56;3.53;;;2.05;;
46597;SDS011;32318;48.858;8.252;2023-03-23T19:49:56;5.95;;;2.33;;
46597;SDS011;32318;48.858;8.252;2023-03-23T19:57:58;6.40;;;2.38;;
46597;SDS011;32318;48.858;8.252;2023-03-23T20:05:59;3.58;;;2.20;;
46597;SDS011;32318;48.858;8.252;2023-03-23T20:14:06;4.85;;;2.28;;
46597;SDS011;32318;48.858;8.252;2023-03-23T20:22:07;4.07;;;1.80;;
46597;SDS011;32318;48.858;8.252;2023-03-23T20:30:07;5.75;;;2.85;;
46597;SDS011;32318;48.858;8.252;2023-03-23T20:38:09;7.60;;;2.63;;
46597;SDS011;32318;48.858;8.252;2023-03-23T20:46:09;5.43;;;3.22;;
46597;SDS011;32318;48.858;8.252;2023-03-23T20:54:14;4.80;;;2.30;;
46597;SDS011;32318;48.858;8.252;2023-03-23T21:02:17;4.68;;;2.08;;
46597;SDS011;32318;48.858;8.252;2023-03-23T21:10:18;7.53;;;3.13;;
46597;SDS011;32318;48.858;8.252;2023-03-23T21:18:21;7.70;;;3.40;;
46597;SDS011;32318;48.858;8.252;2023-03-23T21:26:22;12.43;;;4.55;;
46597;SDS011;32318;48.858;8.252;2023-03-23T21:34:26;4.47;;;2.20;;
46597;SDS011;32318;48.858;8.252;2023-03-23T21:42:26;4.00;;;2.10;;
46597;SDS011;32318;48.858;8.252;2023-03-23T21:50:29;7.60;;;2.35;;
46597;SDS011;32318;48.858;8.252;2023-03-23T21:58:34;4.97;;;2.22;;
46597;SDS011;32318;48.858;8.252;2023-03-23T22:06:36;5.60;;;1.90;;
46597;SDS011;32318;48.858;8.252;2023-03-23T22:14:36;5.13;;;2.35;;
46597;SDS011;32318;48.858;8.252;2023-03-23T22:22:37;5.38;;;1.90;;
46597;SDS011;32318;48.858;8.252;2023-03-23T22:30:38;6.33;;;2.37;;
46597;SDS011;32318;48.858;8.252;2023-03-23T22:38:39;6.93;;;2.38;;
46597;SDS011;32318;48.858;8.252;2023-03-23T22:46:40;5.50;;;2.30;;
46597;SDS011;32318;48.858;8.252;2023-03-23T22:54:41;5.73;;;2.50;;
46597;SDS011;32318;48.858;8.252;2023-03-23T23:02:41;9.20;;;2.33;;
46597;SDS011;32318;48.858;8.252;2023-03-23T23:10:43;3.78;;;2.00;;
46597;SDS011;32318;48.858;8.252;2023-03-23T23:18:45;4.18;;;2.50;;
46597;SDS011;32318;48.858;8.252;2023-03-23T23:26:48;5.05;;;2.25;;
46597;SDS011;32318;48.858;8.252;2023-03-23T23:34:49;5.72;;;2.35;;
46597;SDS011;32318;48.858;8.252;2023-03-23T23:42:51;5.75;;;2.38;;
46597;SDS011;32318;48.858;8.252;2023-03-23T23:50:52;4.90;;;2.10;;
46597;SDS011;32318;48.858;8.252;2023-03-23T23:58:52;8.45;;;2.30;;
